HDAM/JIB METAR and TAF weather

Enter ICAO airport designator
Station Type Date Time Source
HDAM METAR 2021/07/28 04:00 UTC NOAA

HDAM 280400Z 27011KT CAVOK 33/26 Q1005


Station Type Date Time Source
HDAM Decoded METAR 2021/07/28 04:00 UTC NOAA

Djibouti \ Ambouli, Djibouti (HDAM) 11-33N 043-10E
Jul 28, 2021 - 12:00 AM EDT / 2021.07.28 0400 UTC
Wind: from the W (270 degrees) at 13 MPH (11 KT):0
Visibility: greater than 7 mile(s):0
Temperature: 91 F (33 C)
Heat index: 106.2 F (41.2 C):1
Dew Point: 78 F (26 C)
Relative Humidity: 66%
Pressure (altimeter): 29.68 in. Hg (1005 hPa)
ob: HDAM 280400Z 27011KT CAVOK 33/26 Q1005
cycle: 4

Station Type Date Time Source
HDAM TAF 2021/07/27 18:27 UTC NOAA

TAF HDAM 271700Z 2718/2818 VRB03KT 9999 SCT023 SCT030 PROB40 TSRA/SHRA BKN023 SCT030 FEW030CB
BECMG 2806/2812 10010KT SCT023 SCT030

Example: see airport list